createdAt,value
2022-08-17T00:00:01.453Z,43.01
2022-08-17T00:00:12.004Z,42.91
2022-08-17T00:00:49.459Z,43.01
2022-08-17T00:00:56.782Z,43.01
2022-08-17T00:01:03.275Z,42.91
2022-08-17T00:01:13.245Z,42.91
2022-08-17T00:01:24.155Z,42.91
2022-08-17T00:01:51.421Z,42.91
2022-08-17T00:01:56.164Z,42.91
2022-08-17T00:02:01.493Z,42.91
2022-08-17T00:02:25.866Z,42.91
2022-08-17T00:02:31.569Z,42.91
2022-08-17T00:02:43.081Z,42.91
2022-08-17T00:02:51.242Z,42.91
2022-08-17T00:03:01.133Z,43.01
2022-08-17T00:03:11.122Z,42.91
2022-08-17T00:03:21.125Z,42.91
2022-08-17T00:03:31.124Z,42.91
2022-08-17T00:03:41.126Z,42.91
2022-08-17T00:03:51.121Z,42.91
2022-08-17T00:04:01.122Z,42.91
2022-08-17T00:04:11.670Z,42.91
2022-08-17T00:04:21.118Z,42.91
2022-08-17T00:04:31.116Z,42.91
2022-08-17T00:04:41.118Z,42.91
2022-08-17T00:04:51.112Z,42.91
2022-08-17T00:05:01.121Z,42.91
2022-08-17T00:05:11.111Z,42.91
2022-08-17T00:05:21.115Z,42.91
2022-08-17T00:05:31.110Z,42.91
2022-08-17T00:05:41.108Z,42.91
2022-08-17T00:05:51.106Z,42.91
2022-08-17T00:06:01.109Z,42.91
2022-08-17T00:06:11.105Z,42.91
2022-08-17T00:06:21.110Z,42.91
2022-08-17T00:06:31.101Z,42.91
2022-08-17T00:06:41.102Z,42.91
2022-08-17T00:06:51.099Z,42.91
2022-08-17T00:07:01.101Z,42.91
2022-08-17T00:07:11.098Z,42.91
2022-08-17T00:07:21.120Z,42.91
2022-08-17T00:07:31.095Z,42.91
2022-08-17T00:07:41.095Z,42.91
2022-08-17T00:07:51.290Z,42.91
2022-08-17T00:08:01.094Z,42.91
2022-08-17T00:08:11.092Z,42.91
2022-08-17T00:08:21.090Z,42.91
2022-08-17T00:08:31.087Z,42.91
2022-08-17T00:08:41.094Z,42.91
2022-08-17T00:08:51.112Z,42.91
2022-08-17T00:09:01.086Z,42.91
2022-08-17T00:09:11.083Z,42.91
2022-08-17T00:09:23.009Z,42.91
2022-08-17T00:09:31.080Z,42.91
2022-08-17T00:09:41.080Z,42.91
2022-08-17T00:10:06.030Z,42.91
2022-08-17T00:10:10.693Z,42.91
2022-08-17T00:10:20.698Z,42.91
2022-08-17T00:10:32.235Z,42.91
2022-08-17T00:10:40.698Z,42.91
2022-08-17T00:10:50.691Z,42.91
2022-08-17T00:11:00.686Z,42.91
2022-08-17T00:11:10.690Z,42.91
2022-08-17T00:11:20.687Z,42.91
2022-08-17T00:11:30.687Z,42.91
2022-08-17T00:11:40.685Z,42.91
2022-08-17T00:12:40.909Z,42.91
2022-08-17T00:12:48.714Z,42.91
2022-08-17T00:12:53.612Z,42.91
2022-08-17T00:13:03.381Z,42.82
2022-08-17T00:13:13.377Z,42.82
2022-08-17T00:13:23.374Z,42.82
2022-08-17T00:13:33.375Z,42.82
2022-08-17T00:13:43.373Z,42.82
2022-08-17T00:13:55.905Z,42.82
2022-08-17T00:14:03.368Z,42.91
2022-08-17T00:14:13.372Z,42.82
2022-08-17T00:14:23.365Z,42.91
2022-08-17T00:14:33.373Z,42.82
2022-08-17T00:14:43.366Z,42.82
2022-08-17T00:14:53.365Z,42.91
2022-08-17T00:15:03.364Z,42.91
2022-08-17T00:15:13.364Z,42.91
2022-08-17T00:15:23.359Z,42.91
2022-08-17T00:15:33.361Z,42.91
2022-08-17T00:15:43.355Z,42.82
2022-08-17T00:15:53.362Z,42.82
2022-08-17T00:16:03.360Z,42.82
2022-08-17T00:16:13.362Z,42.82
2022-08-17T00:16:23.357Z,42.91
2022-08-17T00:17:01.628Z,42.82
2022-08-17T00:17:06.290Z,42.82
2022-08-17T00:17:16.293Z,42.82
2022-08-17T00:17:26.289Z,42.82
2022-08-17T00:17:36.289Z,42.82
2022-08-17T00:17:46.287Z,42.82
2022-08-17T00:17:56.319Z,42.82
2022-08-17T00:19:01.627Z,42.82
2022-08-17T00:19:12.571Z,42.82
2022-08-17T00:19:17.233Z,42.82
2022-08-17T00:19:27.234Z,42.82
2022-08-17T00:19:37.230Z,42.82
2022-08-17T00:19:47.234Z,42.82
2022-08-17T00:19:57.231Z,42.82
2022-08-17T00:20:07.231Z,42.82
2022-08-17T00:20:17.232Z,42.82
2022-08-17T00:20:33.504Z,42.82
2022-08-17T00:20:39.437Z,42.82
2022-08-17T00:20:47.227Z,42.82
2022-08-17T00:20:57.222Z,42.82
2022-08-17T00:21:10.441Z,42.82
2022-08-17T00:21:17.222Z,42.82
2022-08-17T00:22:10.622Z,42.82
2022-08-17T00:22:39.937Z,42.82
2022-08-17T00:22:44.604Z,42.82
2022-08-17T00:22:54.603Z,42.82
2022-08-17T00:23:04.617Z,42.82
2022-08-17T00:23:14.602Z,42.82
2022-08-17T00:23:24.600Z,42.82
2022-08-17T00:23:34.593Z,42.82
2022-08-17T00:23:49.326Z,42.82
2022-08-17T00:23:54.604Z,42.82
2022-08-17T00:24:04.603Z,42.82
2022-08-17T00:24:14.588Z,42.82
2022-08-17T00:24:24.590Z,42.82
2022-08-17T00:24:34.590Z,42.82
2022-08-17T00:24:44.588Z,42.82
2022-08-17T00:24:54.588Z,42.82
2022-08-17T00:25:04.589Z,42.82
2022-08-17T00:25:14.582Z,42.82
2022-08-17T00:25:24.590Z,42.82
2022-08-17T00:25:34.581Z,42.82
2022-08-17T00:25:44.582Z,42.82
2022-08-17T00:25:54.579Z,42.82
2022-08-17T00:26:04.620Z,42.82
2022-08-17T00:26:14.576Z,42.72
2022-08-17T00:26:38.795Z,42.82
2022-08-17T00:26:49.366Z,42.82
2022-08-17T00:26:54.035Z,42.82
2022-08-17T00:27:04.028Z,42.82
2022-08-17T00:27:14.029Z,42.82
2022-08-17T00:27:24.027Z,42.82
2022-08-17T00:27:34.030Z,42.82
2022-08-17T00:27:44.023Z,42.82
2022-08-17T00:27:54.039Z,42.82
2022-08-17T00:28:04.023Z,42.82
2022-08-17T00:28:14.046Z,42.72
2022-08-17T00:28:24.023Z,42.82
2022-08-17T00:28:34.040Z,42.82
2022-08-17T00:28:44.018Z,42.82
2022-08-17T00:28:54.042Z,42.82
2022-08-17T00:29:04.015Z,42.82
2022-08-17T00:29:16.470Z,42.72
2022-08-17T00:29:24.625Z,42.72
2022-08-17T00:29:34.014Z,42.82
2022-08-17T00:29:44.011Z,42.72
2022-08-17T00:29:54.028Z,42.72
2022-08-17T00:30:04.007Z,42.72
2022-08-17T00:30:14.011Z,42.82
2022-08-17T00:30:24.005Z,42.72
2022-08-17T00:30:48.710Z,42.72
2022-08-17T00:30:57.218Z,42.82
2022-08-17T00:31:01.885Z,42.72
2022-08-17T00:31:11.878Z,42.82
2022-08-17T00:31:21.884Z,42.72
2022-08-17T00:31:31.887Z,42.72
2022-08-17T00:31:41.883Z,42.72
2022-08-17T00:31:51.876Z,42.72
2022-08-17T00:32:01.882Z,42.72
2022-08-17T00:33:17.041Z,42.83
2022-08-17T00:33:21.791Z,42.74
2022-08-17T00:33:31.843Z,42.83
2022-08-17T00:33:41.790Z,42.72
2022-08-17T00:33:51.788Z,42.74
2022-08-17T00:34:01.789Z,42.74
2022-08-17T00:34:11.782Z,42.74
2022-08-17T00:34:21.792Z,42.72
2022-08-17T00:34:31.787Z,42.74
2022-08-17T00:34:41.785Z,42.74
2022-08-17T00:34:51.782Z,42.72
2022-08-17T00:35:01.792Z,42.72
2022-08-17T00:35:11.782Z,42.72
2022-08-17T00:35:21.777Z,42.74
2022-08-17T00:35:31.772Z,42.74
2022-08-17T00:35:41.774Z,42.72
2022-08-17T00:35:51.768Z,42.72
2022-08-17T00:36:01.771Z,42.72
2022-08-17T00:36:11.770Z,42.72
2022-08-17T00:36:21.775Z,42.74
2022-08-17T00:36:31.766Z,42.74
2022-08-17T00:36:41.768Z,42.74
2022-08-17T00:36:51.765Z,42.74
2022-08-17T00:37:01.767Z,42.72
2022-08-17T00:37:11.761Z,42.72
2022-08-17T00:37:21.763Z,42.72
2022-08-17T00:37:31.762Z,42.61
2022-08-17T00:37:41.761Z,42.61
2022-08-17T00:37:51.769Z,42.72
2022-08-17T00:38:01.759Z,42.74
2022-08-17T00:38:11.755Z,42.72
2022-08-17T00:38:21.757Z,42.72
2022-08-17T00:38:31.753Z,42.72
2022-08-17T00:38:41.753Z,42.72
2022-08-17T00:38:51.749Z,42.61
2022-08-17T00:39:01.757Z,42.72
2022-08-17T00:39:11.825Z,42.61
2022-08-17T00:39:21.750Z,42.61
2022-08-17T00:39:31.857Z,42.72
2022-08-17T00:39:41.809Z,42.61
2022-08-17T00:39:51.802Z,42.61
2022-08-17T00:40:01.804Z,42.61
2022-08-17T00:40:11.819Z,42.61
2022-08-17T00:40:21.745Z,42.61
2022-08-17T00:40:40.611Z,42.61
2022-08-17T00:40:49.188Z,42.64
2022-08-17T00:40:55.953Z,42.61
2022-08-17T00:41:03.876Z,42.61
2022-08-17T00:41:13.848Z,42.72
2022-08-17T00:41:23.847Z,42.72
2022-08-17T00:41:33.846Z,42.72
2022-08-17T00:41:43.850Z,42.61
2022-08-17T00:41:53.841Z,42.61
2022-08-17T00:42:03.849Z,42.61
2022-08-17T00:42:13.839Z,42.64
2022-08-17T00:42:27.595Z,42.61
2022-08-17T00:42:35.340Z,42.61
2022-08-17T00:42:43.843Z,42.61
2022-08-17T00:42:53.836Z,42.64
2022-08-17T00:43:03.839Z,42.61
2022-08-17T00:43:13.833Z,42.61
2022-08-17T00:43:23.834Z,42.61
2022-08-17T00:43:33.831Z,42.61
2022-08-17T00:43:43.832Z,42.61
2022-08-17T00:43:53.828Z,42.64
2022-08-17T00:44:03.834Z,42.74
2022-08-17T00:44:13.827Z,42.61
2022-08-17T00:44:23.842Z,42.64
2022-08-17T00:44:34.864Z,42.61
2022-08-17T00:44:43.825Z,42.61
2022-08-17T00:44:53.820Z,42.61
2022-08-17T00:45:03.823Z,42.61
2022-08-17T00:45:13.823Z,42.61
2022-08-17T00:45:23.822Z,42.61
2022-08-17T00:45:33.816Z,42.64
2022-08-17T00:45:43.817Z,42.61
2022-08-17T00:45:53.818Z,42.64
2022-08-17T00:46:03.818Z,42.64
2022-08-17T00:46:13.836Z,42.61
2022-08-17T00:46:23.814Z,42.64
2022-08-17T00:46:33.811Z,42.61
2022-08-17T00:46:43.819Z,42.61
2022-08-17T00:46:53.809Z,42.64
2022-08-17T00:47:03.811Z,42.61
2022-08-17T00:47:13.804Z,42.61
2022-08-17T00:47:33.804Z,42.61
2022-08-17T00:47:43.807Z,42.61
2022-08-17T00:47:53.802Z,42.61
2022-08-17T00:48:03.805Z,42.64
2022-08-17T00:48:30.263Z,42.61
2022-08-17T00:48:35.010Z,42.61
2022-08-17T00:48:39.670Z,42.61
2022-08-17T00:48:49.674Z,42.64
2022-08-17T00:48:59.672Z,42.61
2022-08-17T00:49:09.672Z,42.64
2022-08-17T00:49:19.672Z,42.64
2022-08-17T00:49:29.671Z,42.61
2022-08-17T00:49:39.668Z,42.61
2022-08-17T00:49:49.689Z,42.61
2022-08-17T00:49:59.662Z,42.61
2022-08-17T00:50:09.665Z,42.61
2022-08-17T00:50:19.663Z,42.61
2022-08-17T00:50:29.669Z,42.61
2022-08-17T00:50:39.658Z,42.64
2022-08-17T00:50:49.662Z,42.64
2022-08-17T00:50:59.657Z,42.61
2022-08-17T00:51:09.658Z,42.64
2022-08-17T00:51:19.670Z,42.61
2022-08-17T00:51:29.656Z,42.61
2022-08-17T00:51:39.651Z,42.64
2022-08-17T00:51:49.660Z,42.64
2022-08-17T00:51:59.651Z,42.61
2022-08-17T00:52:10.771Z,42.61
2022-08-17T00:52:19.645Z,42.61
2022-08-17T00:52:29.653Z,42.64
2022-08-17T00:52:39.685Z,42.61
2022-08-17T00:52:49.833Z,42.64
2022-08-17T00:52:59.644Z,42.61
2022-08-17T00:53:09.646Z,42.64
2022-08-17T00:53:19.641Z,42.64
2022-08-17T00:53:29.646Z,42.61
2022-08-17T00:53:39.637Z,42.61
2022-08-17T00:53:49.640Z,42.61
2022-08-17T00:53:59.636Z,42.64
2022-08-17T00:54:09.640Z,42.64
2022-08-17T00:54:19.634Z,42.61
2022-08-17T00:54:29.641Z,42.61
2022-08-17T00:54:41.954Z,42.61
2022-08-17T00:54:49.633Z,42.64
2022-08-17T00:54:59.633Z,42.64
2022-08-17T00:55:09.630Z,42.61
2022-08-17T00:55:19.630Z,42.61
2022-08-17T00:55:29.628Z,42.64
2022-08-17T00:55:39.625Z,42.61
2022-08-17T00:55:49.626Z,42.54
2022-08-17T00:55:59.622Z,42.54
2022-08-17T00:56:09.637Z,42.54
2022-08-17T00:56:19.619Z,42.64
2022-08-17T00:56:29.621Z,42.54
2022-08-17T00:56:39.616Z,42.64
2022-08-17T00:56:49.619Z,42.61
2022-08-17T00:56:59.617Z,42.61
2022-08-17T00:57:09.616Z,42.61
2022-08-17T00:57:19.616Z,42.61
2022-08-17T00:57:29.625Z,42.64
2022-08-17T00:57:39.614Z,42.64
2022-08-17T00:57:54.658Z,42.64
2022-08-17T00:57:59.802Z,42.61
2022-08-17T00:58:09.606Z,42.64
2022-08-17T00:58:19.609Z,42.64
2022-08-17T00:58:40.881Z,42.64
2022-08-17T00:58:45.544Z,42.61
2022-08-17T00:58:55.541Z,42.64
2022-08-17T00:59:05.556Z,42.64
2022-08-17T00:59:15.539Z,42.64
2022-08-17T00:59:25.539Z,42.61
2022-08-17T00:59:35.554Z,42.54
2022-08-17T00:59:45.538Z,42.64
2022-08-17T01:00:02.477Z,42.64
2022-08-17T01:00:08.062Z,42.64
2022-08-17T01:00:15.529Z,42.64
2022-08-17T01:00:35.530Z,42.52
2022-08-17T01:00:45.570Z,42.64
2022-08-17T01:00:55.579Z,42.64
2022-08-17T01:01:05.629Z,42.61
2022-08-17T01:01:21.309Z,42.54
2022-08-17T01:01:26.374Z,42.54
2022-08-17T01:01:35.554Z,42.64
2022-08-17T01:01:45.521Z,42.54
2022-08-17T01:01:55.520Z,42.61
2022-08-17T01:02:05.526Z,42.54
2022-08-17T01:02:15.516Z,42.54
2022-08-17T01:02:25.521Z,42.54
2022-08-17T01:02:41.409Z,42.52
2022-08-17T01:02:47.497Z,42.52
2022-08-17T01:03:05.515Z,42.64
2022-08-17T01:03:15.514Z,42.54
2022-08-17T01:03:25.518Z,42.64
2022-08-17T01:03:35.509Z,42.64
2022-08-17T01:03:45.508Z,42.54
2022-08-17T01:03:55.536Z,42.54
2022-08-17T01:04:05.511Z,42.64
2022-08-17T01:04:15.504Z,42.61
2022-08-17T01:04:25.507Z,42.61
2022-08-17T01:04:35.500Z,42.52
2022-08-17T01:04:45.503Z,42.64
2022-08-17T01:04:55.498Z,42.54
2022-08-17T01:05:05.503Z,42.61
2022-08-17T01:05:15.496Z,42.54
2022-08-17T01:05:35.497Z,42.54
2022-08-17T01:05:45.524Z,42.54
2022-08-17T01:05:55.492Z,42.64
2022-08-17T01:06:05.497Z,42.64
2022-08-17T01:06:15.493Z,42.54
2022-08-17T01:06:25.503Z,42.61
2022-08-17T01:06:35.488Z,42.64
2022-08-17T01:06:45.502Z,42.52
2022-08-17T01:06:55.485Z,42.54
2022-08-17T01:07:05.491Z,42.54
2022-08-17T01:07:15.494Z,42.64
2022-08-17T01:07:25.484Z,42.64
2022-08-17T01:07:35.483Z,42.52
2022-08-17T01:07:45.482Z,42.52
2022-08-17T01:08:05.497Z,42.54
2022-08-17T01:08:15.476Z,42.64
2022-08-17T01:08:25.479Z,42.64
2022-08-17T01:08:35.474Z,42.64
2022-08-17T01:08:45.478Z,42.52
2022-08-17T01:08:57.761Z,42.54
2022-08-17T01:09:05.472Z,42.54
2022-08-17T01:09:15.470Z,42.52
2022-08-17T01:09:25.472Z,42.54
2022-08-17T01:09:35.470Z,42.52
2022-08-17T01:09:45.469Z,42.54
2022-08-17T01:09:55.466Z,42.54
2022-08-17T01:10:05.467Z,42.54
2022-08-17T01:10:59.175Z,42.52
2022-08-17T01:11:05.953Z,42.54
2022-08-17T01:11:10.626Z,42.54
2022-08-17T01:11:20.634Z,42.52
2022-08-17T01:11:30.624Z,42.52
2022-08-17T01:11:40.640Z,42.54
2022-08-17T01:11:50.628Z,42.52
2022-08-17T01:12:00.624Z,42.52
2022-08-17T01:12:10.627Z,42.54
2022-08-17T01:12:20.623Z,42.54
2022-08-17T01:12:30.617Z,42.52
2022-08-17T01:12:40.620Z,42.54
2022-08-17T01:12:50.811Z,42.54
2022-08-17T01:13:00.639Z,42.52
2022-08-17T01:13:10.615Z,42.54
2022-08-17T01:13:20.613Z,42.52
2022-08-17T01:13:30.631Z,42.54
2022-08-17T01:13:41.567Z,42.54
2022-08-17T01:13:50.610Z,42.54
2022-08-17T01:14:00.610Z,42.54
2022-08-17T01:14:10.606Z,42.54
2022-08-17T01:14:20.609Z,42.54
2022-08-17T01:14:30.605Z,42.54
2022-08-17T01:14:40.604Z,42.54
2022-08-17T01:14:50.599Z,42.52
2022-08-17T01:15:00.603Z,42.54
2022-08-17T01:15:10.600Z,42.54
2022-08-17T01:15:20.621Z,42.54
2022-08-17T01:15:30.600Z,42.54
2022-08-17T01:15:40.597Z,42.54
2022-08-17T01:15:50.596Z,42.54
2022-08-17T01:16:00.596Z,42.54
2022-08-17T01:16:10.594Z,42.54
2022-08-17T01:16:20.592Z,42.54
2022-08-17T01:16:30.588Z,42.54
2022-08-17T01:16:40.590Z,42.52
2022-08-17T01:16:50.587Z,42.54
2022-08-17T01:17:00.592Z,42.54
2022-08-17T01:17:10.585Z,42.54
2022-08-17T01:17:20.592Z,42.54
2022-08-17T01:17:30.589Z,42.54
2022-08-17T01:17:40.592Z,42.54
2022-08-17T01:17:50.581Z,42.54
2022-08-17T01:18:00.583Z,42.54
2022-08-17T01:18:10.579Z,42.54
2022-08-17T01:18:20.582Z,42.52
2022-08-17T01:18:30.576Z,42.54
2022-08-17T01:18:40.577Z,42.54
2022-08-17T01:18:50.572Z,42.54
2022-08-17T01:19:00.576Z,42.54
2022-08-17T01:19:10.570Z,42.54
2022-08-17T01:19:20.586Z,42.54
2022-08-17T01:19:30.570Z,42.54
2022-08-17T01:19:40.571Z,42.54
2022-08-17T01:19:50.570Z,42.54
2022-08-17T01:20:00.577Z,42.54
2022-08-17T01:20:10.566Z,42.54
2022-08-17T01:20:20.566Z,42.52
2022-08-17T01:20:30.562Z,42.54
2022-08-17T01:20:47.556Z,42.52
2022-08-17T01:21:03.331Z,42.54
2022-08-17T01:21:13.336Z,42.54
2022-08-17T01:21:23.331Z,42.54
2022-08-17T01:21:33.325Z,42.54
2022-08-17T01:21:43.332Z,42.54
2022-08-17T01:21:53.323Z,42.54
2022-08-17T01:22:03.328Z,42.54
2022-08-17T01:22:13.319Z,42.52
2022-08-17T01:22:23.323Z,42.54
2022-08-17T01:22:33.315Z,42.54
2022-08-17T01:22:43.321Z,42.54
2022-08-17T01:22:53.316Z,42.52
2022-08-17T01:23:03.318Z,42.54
2022-08-17T01:23:18.524Z,42.54
2022-08-17T01:23:25.401Z,42.54
2022-08-17T01:23:33.313Z,42.54
2022-08-17T01:23:43.328Z,42.54
2022-08-17T01:23:53.307Z,42.54
2022-08-17T01:24:03.326Z,42.54
2022-08-17T01:24:13.307Z,42.52
2022-08-17T01:24:23.309Z,42.54
2022-08-17T01:24:33.781Z,42.54
2022-08-17T01:24:43.307Z,42.54
2022-08-17T01:24:53.299Z,42.54
2022-08-17T01:25:03.306Z,42.54
2022-08-17T01:25:13.301Z,42.54
2022-08-17T01:25:23.302Z,42.54
2022-08-17T01:25:33.301Z,42.54
2022-08-17T01:25:43.297Z,42.54
2022-08-17T01:26:03.298Z,42.54
2022-08-17T01:26:13.297Z,42.54
2022-08-17T01:26:23.299Z,42.54
2022-08-17T01:26:33.292Z,42.54
2022-08-17T01:26:43.292Z,42.54
2022-08-17T01:26:53.291Z,42.54
2022-08-17T01:27:03.290Z,42.54
2022-08-17T01:27:15.024Z,42.54
2022-08-17T01:27:23.289Z,42.54
2022-08-17T01:27:33.280Z,42.54
2022-08-17T01:27:43.288Z,42.52
2022-08-17T01:27:53.284Z,42.54
2022-08-17T01:28:03.287Z,42.54
2022-08-17T01:28:13.280Z,42.54
2022-08-17T01:28:57.363Z,42.52
2022-08-17T01:29:02.025Z,42.52
2022-08-17T01:29:12.042Z,42.54
2022-08-17T01:29:22.023Z,42.54
2022-08-17T01:29:32.025Z,42.52
2022-08-17T01:29:42.020Z,42.54
2022-08-17T01:29:52.022Z,42.52
2022-08-17T01:30:02.027Z,42.54
2022-08-17T01:30:57.777Z,42.54
2022-08-17T01:31:03.828Z,42.54
2022-08-17T01:31:08.500Z,42.54
2022-08-17T01:31:18.489Z,42.54
2022-08-17T01:31:28.515Z,42.54
2022-08-17T01:31:38.497Z,42.54
2022-08-17T01:31:48.491Z,42.54
2022-08-17T01:31:58.488Z,42.54
2022-08-17T01:32:08.485Z,42.54
2022-08-17T01:32:18.483Z,42.54
2022-08-17T01:32:28.486Z,42.52
2022-08-17T01:32:38.480Z,42.54
2022-08-17T01:32:48.612Z,42.54
2022-08-17T01:32:58.482Z,42.54
2022-08-17T01:33:08.483Z,42.64
2022-08-17T01:33:18.477Z,42.64
2022-08-17T01:33:28.479Z,42.54
2022-08-17T01:33:38.473Z,42.64
2022-08-17T01:33:48.479Z,42.64
2022-08-17T01:33:58.472Z,42.54
2022-08-17T01:34:08.471Z,42.54
2022-08-17T01:34:18.493Z,42.54
2022-08-17T01:34:37.376Z,42.54
2022-08-17T01:34:50.171Z,42.54
2022-08-17T01:34:55.490Z,42.54
2022-08-17T01:35:05.486Z,42.54
2022-08-17T01:35:15.489Z,42.54
2022-08-17T01:35:25.487Z,42.54
2022-08-17T01:35:35.484Z,42.54
2022-08-17T01:35:45.483Z,42.54
2022-08-17T01:35:55.483Z,42.54
2022-08-17T01:36:05.487Z,42.54
2022-08-17T01:36:15.478Z,42.54
2022-08-17T01:36:25.478Z,42.64
2022-08-17T01:36:35.478Z,42.64
2022-08-17T01:36:45.475Z,42.54
2022-08-17T01:36:55.476Z,42.54
2022-08-17T01:37:05.474Z,42.54
2022-08-17T01:37:15.475Z,42.54
2022-08-17T01:37:25.471Z,42.52
2022-08-17T01:37:35.473Z,42.54
2022-08-17T01:37:45.468Z,42.54
2022-08-17T01:37:55.474Z,42.54
2022-08-17T01:38:05.467Z,42.54
2022-08-17T01:38:15.469Z,42.54
2022-08-17T01:38:27.252Z,42.54
2022-08-17T01:38:35.467Z,42.54
2022-08-17T01:38:45.460Z,42.54
2022-08-17T01:38:55.460Z,42.54
2022-08-17T01:39:05.462Z,42.64
2022-08-17T01:39:15.462Z,42.61
2022-08-17T01:39:25.534Z,42.54
2022-08-17T01:39:35.556Z,42.54
2022-08-17T01:39:45.513Z,42.54
2022-08-17T01:39:55.568Z,42.54
2022-08-17T01:40:05.588Z,42.64
2022-08-17T01:40:15.518Z,42.54
2022-08-17T01:40:25.447Z,42.54
2022-08-17T01:40:35.452Z,42.54
2022-08-17T01:40:45.446Z,42.54
2022-08-17T01:40:57.697Z,42.54
2022-08-17T01:41:05.447Z,42.54
2022-08-17T01:41:15.445Z,42.54
2022-08-17T01:41:25.443Z,42.54
2022-08-17T01:41:35.445Z,42.54
2022-08-17T01:41:45.445Z,42.54
2022-08-17T01:41:55.442Z,42.64
2022-08-17T01:42:05.439Z,42.54
2022-08-17T01:42:15.438Z,42.54
2022-08-17T01:42:25.438Z,42.54
2022-08-17T01:42:35.433Z,42.54
2022-08-17T01:42:45.557Z,42.54
2022-08-17T01:42:55.433Z,42.54
2022-08-17T01:43:05.435Z,42.54
2022-08-17T01:43:15.450Z,42.54
2022-08-17T01:43:25.434Z,42.54
2022-08-17T01:43:35.428Z,42.54
2022-08-17T01:43:45.429Z,42.54
2022-08-17T01:43:55.425Z,42.54
2022-08-17T01:44:05.427Z,42.64
2022-08-17T01:44:15.426Z,42.64
2022-08-17T01:44:25.425Z,42.54
2022-08-17T01:44:35.433Z,42.64
2022-08-17T01:44:45.423Z,42.54
2022-08-17T01:44:55.417Z,42.54
2022-08-17T01:45:05.421Z,42.54
2022-08-17T01:45:15.417Z,42.54
2022-08-17T01:45:25.417Z,42.64
2022-08-17T01:45:35.413Z,42.54
2022-08-17T01:45:45.418Z,42.54
2022-08-17T01:46:03.177Z,42.64
2022-08-17T01:46:08.554Z,42.54
2022-08-17T01:46:15.410Z,42.54
2022-08-17T01:46:25.411Z,42.54
2022-08-17T01:46:35.406Z,42.54
2022-08-17T01:46:45.411Z,42.54
2022-08-17T01:46:55.403Z,42.54
2022-08-17T01:47:05.406Z,42.54
2022-08-17T01:47:15.406Z,42.64
2022-08-17T01:47:25.404Z,42.54
2022-08-17T01:47:36.140Z,42.54
2022-08-17T01:47:45.419Z,42.54
2022-08-17T01:47:55.399Z,42.54
2022-08-17T01:48:05.399Z,42.54
2022-08-17T01:48:15.407Z,42.54
2022-08-17T01:48:25.400Z,42.54
2022-08-17T01:48:35.390Z,42.54
2022-08-17T01:48:45.396Z,42.54
2022-08-17T01:48:55.389Z,42.54
2022-08-17T01:49:05.394Z,42.54
2022-08-17T01:49:15.387Z,42.54
2022-08-17T01:49:25.390Z,42.54
2022-08-17T01:49:35.387Z,42.54
2022-08-17T01:49:45.388Z,42.54
2022-08-17T01:49:55.396Z,42.64
2022-08-17T01:50:05.386Z,42.54
2022-08-17T01:50:15.386Z,42.54
2022-08-17T01:50:25.383Z,42.54
2022-08-17T01:50:35.379Z,42.64
2022-08-17T01:50:45.381Z,42.64
2022-08-17T01:50:55.376Z,42.54
2022-08-17T01:51:05.381Z,42.54
2022-08-17T01:51:15.380Z,42.64
2022-08-17T01:51:25.378Z,42.54
2022-08-17T01:51:35.377Z,42.54
2022-08-17T01:51:45.375Z,42.54
2022-08-17T01:51:55.370Z,42.54
2022-08-17T01:52:05.377Z,42.54
2022-08-17T01:52:15.370Z,42.54
2022-08-17T01:52:25.368Z,42.54
2022-08-17T01:52:35.366Z,42.54
2022-08-17T01:52:45.369Z,42.64
2022-08-17T01:52:55.363Z,42.64
2022-08-17T01:53:05.364Z,42.64
2022-08-17T01:53:15.362Z,42.54
2022-08-17T01:53:25.362Z,42.64
2022-08-17T01:53:35.357Z,42.64
2022-08-17T01:53:45.363Z,42.64
2022-08-17T01:53:55.358Z,42.54
2022-08-17T01:54:05.385Z,42.64
2022-08-17T01:54:15.358Z,42.64
2022-08-17T01:54:25.356Z,42.64
2022-08-17T01:54:35.356Z,42.64
2022-08-17T01:54:45.353Z,42.54
2022-08-17T01:54:55.349Z,42.64
2022-08-17T01:55:05.353Z,42.64
2022-08-17T01:55:15.358Z,42.64
2022-08-17T01:55:27.452Z,42.54
2022-08-17T01:55:35.344Z,42.54
2022-08-17T01:55:45.345Z,42.54
2022-08-17T01:55:55.345Z,42.64
2022-08-17T01:56:05.357Z,42.64
2022-08-17T01:56:15.340Z,42.54
2022-08-17T01:56:25.339Z,42.54
2022-08-17T01:56:35.342Z,42.64
2022-08-17T01:56:55.336Z,42.64
2022-08-17T01:57:05.351Z,42.64
2022-08-17T01:57:15.333Z,42.54
2022-08-17T01:57:25.335Z,42.54
2022-08-17T01:57:35.332Z,42.64
2022-08-17T01:57:45.338Z,42.54
2022-08-17T01:57:55.329Z,42.64
2022-08-17T01:58:05.351Z,42.64
2022-08-17T01:58:15.326Z,42.64
2022-08-17T01:58:25.346Z,42.64
2022-08-17T01:58:35.324Z,42.64
2022-08-17T01:58:45.326Z,42.64
2022-08-17T01:58:55.325Z,42.64
2022-08-17T01:59:05.323Z,42.64
2022-08-17T01:59:25.322Z,42.64
2022-08-17T01:59:35.317Z,42.64
2022-08-17T01:59:45.320Z,42.64
2022-08-17T01:59:55.314Z,42.64
2022-08-17T02:00:05.320Z,42.64
2022-08-17T02:00:15.317Z,42.64
2022-08-17T02:00:25.316Z,42.64
2022-08-17T02:01:00.084Z,42.64
2022-08-17T02:01:05.933Z,42.64
2022-08-17T02:01:10.672Z,42.64
2022-08-17T02:01:20.709Z,42.54
2022-08-17T02:01:30.662Z,42.54
2022-08-17T02:01:40.686Z,42.54
2022-08-17T02:01:50.738Z,42.64
2022-08-17T02:02:00.608Z,42.64
2022-08-17T02:02:10.605Z,42.64
2022-08-17T02:02:30.599Z,42.64
2022-08-17T02:02:36.062Z,42.64
2022-08-17T02:02:40.728Z,42.64
2022-08-17T02:02:50.936Z,42.64
2022-08-17T02:03:00.729Z,42.64
2022-08-17T02:03:10.724Z,42.64
2022-08-17T02:03:20.724Z,42.64
2022-08-17T02:03:30.737Z,42.64
2022-08-17T02:03:40.732Z,42.64
2022-08-17T02:04:00.631Z,42.64
2022-08-17T02:04:06.351Z,42.64
2022-08-17T02:04:16.350Z,42.64
2022-08-17T02:04:26.353Z,42.64
2022-08-17T02:04:36.346Z,42.64
2022-08-17T02:04:46.348Z,42.64
2022-08-17T02:04:56.347Z,42.64
2022-08-17T02:05:06.344Z,42.64
2022-08-17T02:05:16.341Z,42.64
2022-08-17T02:05:26.343Z,42.64
2022-08-17T02:05:36.339Z,42.64
2022-08-17T02:05:46.339Z,42.64
2022-08-17T02:05:56.343Z,42.64
2022-08-17T02:06:06.338Z,42.64
2022-08-17T02:06:52.878Z,42.64
2022-08-17T02:06:58.778Z,42.64
2022-08-17T02:07:05.131Z,42.64
2022-08-17T02:07:15.133Z,42.64
2022-08-17T02:07:26.925Z,42.64
2022-08-17T02:07:38.201Z,42.64
2022-08-17T02:08:04.570Z,42.64
2022-08-17T02:08:20.152Z,42.64
2022-08-17T02:08:37.359Z,42.64
2022-08-17T02:09:06.627Z,42.64
2022-08-17T02:09:19.151Z,42.64
2022-08-17T02:09:29.883Z,42.64
2022-08-17T02:09:38.019Z,42.64
2022-08-17T02:09:52.644Z,42.64
2022-08-17T02:09:58.016Z,42.64
2022-08-17T02:10:16.724Z,42.64
2022-08-17T02:10:24.674Z,42.64
2022-08-17T02:10:38.266Z,42.64
2022-08-17T02:10:51.363Z,42.64
2022-08-17T02:10:57.870Z,42.64
2022-08-17T02:11:08.946Z,42.64
2022-08-17T02:11:17.868Z,42.64
2022-08-17T02:11:27.863Z,42.64
2022-08-17T02:11:37.878Z,42.64
2022-08-17T02:11:47.859Z,42.64
2022-08-17T02:11:57.864Z,42.64
2022-08-17T02:12:37.912Z,42.64
2022-08-17T02:12:44.227Z,42.64
2022-08-17T02:12:49.024Z,42.64
2022-08-17T02:12:58.892Z,42.64
2022-08-17T02:13:08.888Z,42.64
2022-08-17T02:13:18.891Z,42.64
2022-08-17T02:13:28.886Z,42.64
2022-08-17T02:13:38.907Z,42.64
2022-08-17T02:13:48.881Z,42.64
2022-08-17T02:14:03.651Z,42.64
2022-08-17T02:14:08.880Z,42.64
2022-08-17T02:14:18.882Z,42.64
2022-08-17T02:14:28.883Z,42.64
2022-08-17T02:14:38.884Z,42.64
2022-08-17T02:14:48.878Z,42.64
2022-08-17T02:14:58.881Z,42.64
2022-08-17T02:15:08.882Z,42.64
2022-08-17T02:15:18.877Z,42.64
2022-08-17T02:15:28.873Z,42.64
2022-08-17T02:15:38.875Z,42.64
2022-08-17T02:15:48.870Z,42.64
2022-08-17T02:15:58.874Z,42.64
2022-08-17T02:16:08.866Z,42.64
2022-08-17T02:16:18.869Z,42.64
2022-08-17T02:16:28.866Z,42.64
2022-08-17T02:16:42.463Z,42.64
2022-08-17T02:16:48.919Z,42.64
2022-08-17T02:16:58.866Z,42.64
2022-08-17T02:17:08.862Z,42.64
2022-08-17T02:17:18.862Z,42.74
2022-08-17T02:17:28.860Z,42.74
2022-08-17T02:17:38.872Z,42.64
2022-08-17T02:17:48.856Z,42.74
2022-08-17T02:17:59.356Z,42.74
2022-08-17T02:18:08.859Z,42.74
2022-08-17T02:18:18.856Z,42.74
2022-08-17T02:18:28.852Z,42.74
2022-08-17T02:18:38.854Z,42.64
2022-08-17T02:18:48.847Z,42.74
2022-08-17T02:18:58.851Z,42.74
2022-08-17T02:19:08.857Z,42.64
2022-08-17T02:19:18.847Z,42.74
2022-08-17T02:19:28.845Z,42.74